Russels Point, Indiana
Current Conditions -  °F | °C
As of 9:35 AM on Sunday 25 Jan 2015 (Local Time) from KANQ Reporting Station
Overcast Overcast  
Wind Chill: 26°   Ceiling: 800
Heat Index: 34°   Visibility: 6mi
Dew Point: 32°   Wind: 9mph
Humidity: 93%   Direction: 90°E
Pressure: 29.75"   Gusts: NA
Location:  41.5557°N, 84.8806°W
Report Text: KANQ 251435Z AUTO 09008KT 6SM OVC008 01/00 A2975 RMK
Loading
Personal Weather Stations






























Interactive Weather Map New forecast layout! Learn more

10-Day Weather Forecast

Advertisements
Track Severe Weather on mobile